| Date | Time | Temp. (oF) | Dew Point (oF) | Rel. Hum. (%) | Press. (in.) | Wind Dir. | Wind Speed (mph) | Hourly Rainfall (in.) |
|
|---|---|---|---|---|---|---|---|---|---|
| 1 | 03/30 | 00:00 | 48 | 39 | 72 | 29.50 | NW | 4 | 0.00 |
| 2 | 03/29 | 23:00 | 48 | 41 | 79 | 29.47 | NNW | 4 | 0.00 |
| 3 | 03/29 | 22:00 | 48 | 44 | 89 | 29.45 | NW | 1 | 0.00 |
| 4 | 03/29 | 21:00 | 48 | 45 | 90 | 29.43 | W | 1 | 0.02 |
| 5 | 03/29 | 20:00 | 50 | 45 | 85 | 29.40 | NW | 5 | 0.00 |
| 6 | 03/29 | 19:00 | 52 | 46 | 80 | 29.39 | NW | 11 | 0.00 |
| 7 | 03/29 | 18:00 | 54 | 48 | 82 | 29.37 | WNW | 6 | 0.24 |
| 8 | 03/29 | 17:00 | 56 | 52 | 87 | 29.28 | W | 4 | -0.13 |
| 9 | 03/29 | 16:00 | 71 | 59 | 68 | 29.24 | SW | 7 | 0.00 |
| 10 | 03/29 | 15:00 | 69 | 60 | 74 | 29.30 | SSW | 15 | 0.00 |
| 11 | 03/29 | 14:00 | 66 | 59 | 81 | 29.34 | SSW | 5 | 0.00 |
| 12 | 03/29 | 13:00 | 61 | 57 | 89 | 29.39 | SSE | 9 | 0.00 |
| 13 | 03/29 | 12:00 | 57 | 57 | 100 | 29.43 | SSW | 8 | 0.00 |
| 14 | 03/29 | 11:00 | 53 | 53 | 100 | 29.46 | SE | 5 | 0.00 |
| 15 | 03/29 | 10:00 | 49 | 49 | 100 | 29.48 | SSE | 2 | 0.00 |
| 16 | 03/29 | 09:00 | 48 | 48 | 100 | 29.51 | SE | 0 | 0.01 |
| 17 | 03/29 | 08:00 | 47 | 46 | 100 | 29.50 | ESE | 5 | 0.01 |
| 18 | 03/29 | 07:00 | 47 | 46 | 100 | 29.52 | SE | 4 | 0.00 |
| 19 | 03/29 | 06:00 | 47 | 46 | 100 | 29.55 | ENE | 4 | 0.01 |
| 20 | 03/29 | 05:00 | 47 | 46 | 100 | 29.57 | ESE | 5 | 0.01 |
| 21 | 03/29 | 04:00 | 47 | 46 | 100 | 29.62 | NE | 5 | 0.05 |
| 22 | 03/29 | 03:00 | 47 | 46 | 100 | 29.66 | ENE | 7 | 0.04 |
| 23 | 03/29 | 02:00 | 48 | 48 | 100 | 29.71 | ESE | 4 | 0.00 |
| 24 | 03/29 | 01:00 | 49 | 48 | 99 | 29.74 | ESE | 6 | 0.00 |